Time;durP1;ratioP1;P1;durP2;ratioP2;P2;SDS_P1;SDS_P2;PMS_P1;PMS_P2;Temp;Humidity;BMP_temperature;BMP_pressure;BME280_temperature;BME280_humidity;BME280_pressure;Samples;Min_cycle;Max_cycle;Signal;HPM_P1;HPM_P2
2023/01/31 00:01:32;;;;;;;;;;;4.30;99.90;;;;;;5011478;28;1149;-62
2023/01/31 00:03:58;;;;;;;;;;;4.30;99.90;;;;;;5012353;28;1117;-62
2023/01/31 00:06:25;;;;;;;;;;;4.40;99.90;;;;;;5011949;28;1910;-62
2023/01/31 00:08:52;;;;;;;;;;;4.50;99.90;;;;;;5010873;28;1163;-62
2023/01/31 00:11:18;;;;;;;;;;;3.50;99.90;;;;;;5012308;28;951;-62
2023/01/31 00:13:44;;;;;;;;;;;4.10;99.90;;;;;;5012156;28;1141;-62
2023/01/31 00:16:10;;;;;;;;;;;4.10;99.90;;;;;;5024160;28;1082;-62
2023/01/31 00:18:37;;;;;;;;;;;4.00;99.90;;;;;;5031834;28;1082;-62
2023/01/31 00:21:04;;;;;;;;;;;4.00;99.90;;;;;;5021926;28;1113;-62
2023/01/31 00:23:29;;;;;;;;;;;3.90;99.90;;;;;;5025370;28;1159;-62
2023/01/31 00:26:05;;;;;;;;;;;3.90;99.90;;;;;;5008088;28;1910;-62
2023/01/31 00:28:30;;;;;;;;;;;3.90;99.90;;;;;;5031543;28;1180;-62
2023/01/31 00:30:57;;;;;;;;;;;3.90;99.90;;;;;;5029079;28;1013;-62
2023/01/31 00:33:23;;;;;;;;;;;3.90;99.90;;;;;;5013472;28;1219;-62
2023/01/31 00:35:49;;;;;;;;;;;3.80;99.90;;;;;;5030078;28;1285;-62
2023/01/31 00:38:15;;;;;;;;;;;3.90;99.90;;;;;;5004941;28;2593;-62
2023/01/31 00:40:40;;;;;;;;;;;3.70;99.90;;;;;;5013734;28;1152;-62
2023/01/31 00:43:06;;;;;;;;;;;3.80;99.90;;;;;;5012412;28;1089;-62
2023/01/31 00:45:32;;;;;;;;;;;3.90;99.90;;;;;;5030906;28;1931;-62
2023/01/31 00:47:57;;;;;;;;;;;3.80;99.90;;;;;;5013812;28;1093;-62
2023/01/31 00:50:24;;;;;;;;;;;4.10;99.90;;;;;;4987700;28;1915;-62
2023/01/31 00:52:50;;;;;;;;;;;3.80;99.90;;;;;;5021207;28;1571;-62
2023/01/31 00:55:15;;;;;;;;;;;3.80;99.90;;;;;;5013421;28;1113;-62
2023/01/31 00:57:41;;;;;;;;;;;3.80;99.90;;;;;;5008596;28;1086;-62
2023/01/31 01:00:07;;;;;;;;;;;3.70;99.90;;;;;;5011685;28;1153;-62
2023/01/31 01:02:33;;;;;;;;;;;3.80;99.90;;;;;;5030503;28;1954;-62
2023/01/31 01:04:59;;;;;;;;;;;3.80;99.90;;;;;;5029416;28;1979;-62
2023/01/31 01:07:25;;;;;;;;;;;3.80;99.90;;;;;;5012709;28;1568;-62
2023/01/31 01:09:53;;;;;;;;;;;3.80;99.90;;;;;;5005023;28;1200;-62
2023/01/31 01:12:18;;;;;;;;;;;3.80;99.90;;;;;;5002942;28;1122;-62
2023/01/31 01:14:44;;;;;;;;;;;3.80;99.90;;;;;;5035095;28;1165;-62
2023/01/31 01:17:10;;;;;;;;;;;3.80;99.90;;;;;;5050785;28;1093;-62
2023/01/31 01:19:35;;;;;;;;;;;3.80;99.90;;;;;;5014941;28;1134;-62
2023/01/31 01:22:04;;;;;;;;;;;3.80;99.90;;;;;;5012638;28;1364;-61
2023/01/31 01:24:30;;;;;;;;;;;3.90;99.90;;;;;;5012700;28;1236;-62
2023/01/31 01:26:56;;;;;;;;;;;3.80;99.90;;;;;;5011817;28;1914;-62
2023/01/31 01:29:22;;;;;;;;;;;3.80;99.90;;;;;;5012393;28;1026;-62
2023/01/31 01:31:48;;;;;;;;;;;3.90;99.90;;;;;;5012859;28;1159;-62
2023/01/31 01:34:15;;;;;;;;;;;3.90;99.90;;;;;;5012049;28;1119;-62
2023/01/31 01:36:41;;;;;;;;;;;3.90;99.90;;;;;;4995351;28;1105;-61
2023/01/31 01:39:08;;;;;;;;;;;3.80;99.90;;;;;;5011869;28;1110;-62
2023/01/31 01:41:34;;;;;;;;;;;3.90;99.90;;;;;;4996006;28;1122;-62
2023/01/31 01:44:02;;;;;;;;;;;4.10;99.90;;;;;;5029486;28;1141;-62
2023/01/31 01:46:33;;;;;;;;;;;4.00;99.90;;;;;;5029034;28;1914;-62
2023/01/31 01:49:02;;;;;;;;;;;4.00;99.90;;;;;;5030165;28;1106;-61
2023/01/31 01:51:28;;;;;;;;;;;3.90;99.90;;;;;;5029774;28;1641;-62
2023/01/31 01:53:57;;;;;;;;;;;3.90;99.90;;;;;;5028645;28;1088;-62
2023/01/31 01:56:26;;;;;;;;;;;3.90;99.90;;;;;;5011898;28;1797;-62
2023/01/31 01:58:56;;;;;;;;;;;4.00;99.90;;;;;;5029720;28;1079;-62
2023/01/31 02:01:22;;;;;;;;;;;3.80;99.90;;;;;;5011282;28;1115;-61
2023/01/31 02:03:50;;;;;;;;;;;3.90;99.90;;;;;;5029512;28;1186;-61
2023/01/31 02:06:15;;;;;;;;;;;3.90;99.90;;;;;;5029357;28;1970;-62
2023/01/31 02:08:41;;;;;;;;;;;3.90;99.90;;;;;;5011045;28;1185;-62
2023/01/31 02:11:14;;;;;;;;;;;3.90;99.90;;;;;;4994870;28;1174;-62
2023/01/31 02:13:40;;;;;;;;;;;3.80;99.90;;;;;;5029483;28;1098;-62
2023/01/31 02:16:13;;;;;;;;;;;3.90;99.90;;;;;;5028650;28;1113;-62
2023/01/31 02:18:39;;;;;;;;;;;3.90;99.90;;;;;;5012079;28;1134;-62
2023/01/31 02:21:08;;;;;;;;;;;4.00;99.90;;;;;;5009636;28;1161;-62
2023/01/31 02:23:33;;;;;;;;;;;4.00;99.90;;;;;;5028618;28;1243;-62
2023/01/31 02:26:05;;;;;;;;;;;4.00;99.90;;;;;;5011615;28;1906;-62
2023/01/31 02:28:44;;;;;;;;;;;4.00;99.90;;;;;;5010402;28;1086;-62
2023/01/31 02:31:13;;;;;;;;;;;3.80;99.90;;;;;;5028170;28;1184;-62
2023/01/31 02:33:41;;;;;;;;;;;3.70;99.90;;;;;;5011765;28;1158;-62
2023/01/31 02:36:16;;;;;;;;;;;3.60;99.90;;;;;;5010825;28;1210;-62
2023/01/31 02:38:42;;;;;;;;;;;3.50;99.90;;;;;;5011294;28;1067;-62
2023/01/31 02:41:11;;;;;;;;;;;3.50;99.90;;;;;;4995073;28;1130;-61
2023/01/31 02:46:36;;;;;;;;;;;3.50;99.90;;;;;;5028193;28;1924;-62
2023/01/31 02:49:06;;;;;;;;;;;3.70;99.90;;;;;;5028280;28;1220;-61
2023/01/31 02:51:37;;;;;;;;;;;3.40;99.90;;;;;;5018874;28;1948;-62
2023/01/31 02:54:10;;;;;;;;;;;3.50;99.90;;;;;;5012149;28;1103;-61
2023/01/31 02:56:37;;;;;;;;;;;3.50;99.90;;;;;;5028067;28;1236;-61
2023/01/31 02:59:07;;;;;;;;;;;3.60;99.90;;;;;;5010620;28;1275;-62
2023/01/31 03:01:35;;;;;;;;;;;3.60;99.90;;;;;;4994919;28;1170;-62
2023/01/31 03:04:03;;;;;;;;;;;3.60;99.90;;;;;;5027976;28;1177;-62
2023/01/31 03:06:32;;;;;;;;;;;3.60;99.90;;;;;;5012863;28;1992;-61
2023/01/31 03:08:58;;;;;;;;;;;3.90;99.90;;;;;;5029211;28;1078;-61
2023/01/31 03:11:28;;;;;;;;;;;3.70;99.90;;;;;;5012630;28;1154;-61
2023/01/31 03:14:06;;;;;;;;;;;3.60;99.90;;;;;;5037696;28;1159;-62
2023/01/31 03:19:26;;;;;;;;;;;3.70;99.90;;;;;;5010521;28;1173;-61
2023/01/31 03:21:59;;;;;;;;;;;3.70;99.90;;;;;;5028249;28;1685;-62
2023/01/31 03:24:27;;;;;;;;;;;3.60;99.90;;;;;;5031896;28;1240;-62
2023/01/31 03:26:54;;;;;;;;;;;3.50;99.90;;;;;;5033870;28;1906;-62
2023/01/31 03:29:21;;;;;;;;;;;3.50;99.90;;;;;;5034906;28;1117;-61
2023/01/31 03:31:52;;;;;;;;;;;3.50;99.90;;;;;;5005127;28;1839;-61
2023/01/31 03:34:18;;;;;;;;;;;3.40;99.90;;;;;;5031999;28;1169;-61
2023/01/31 03:36:50;;;;;;;;;;;3.60;99.90;;;;;;5014913;28;1106;-61
2023/01/31 03:39:34;;;;;;;;;;;3.40;99.90;;;;;;5013378;28;1277;-61
2023/01/31 03:42:01;;;;;;;;;;;3.40;99.90;;;;;;5032044;28;1086;-61
2023/01/31 03:44:35;;;;;;;;;;;3.70;99.90;;;;;;5014616;28;1122;-61
2023/01/31 03:47:04;;;;;;;;;;;3.30;99.90;;;;;;5013927;28;1910;-61
2023/01/31 03:49:30;;;;;;;;;;;3.30;99.90;;;;;;5013730;28;1330;-61
2023/01/31 03:51:59;;;;;;;;;;;3.30;99.90;;;;;;5014590;28;1299;-61
2023/01/31 03:54:27;;;;;;;;;;;3.30;99.90;;;;;;5013728;28;1280;-61
2023/01/31 03:56:56;;;;;;;;;;;3.40;99.90;;;;;;5013956;28;1131;-61
2023/01/31 03:59:25;;;;;;;;;;;3.40;99.90;;;;;;5032196;28;1163;-61
2023/01/31 04:01:52;;;;;;;;;;;3.40;99.90;;;;;;5030070;28;1185;-61
2023/01/31 04:04:31;;;;;;;;;;;3.50;99.90;;;;;;5014238;28;1002;-61
2023/01/31 04:06:57;;;;;;;;;;;3.30;99.90;;;;;;5030125;28;1918;-61
2023/01/31 04:09:23;;;;;;;;;;;3.40;99.90;;;;;;5014416;28;1115;-61
2023/01/31 04:11:49;;;;;;;;;;;3.60;99.90;;;;;;5013826;28;948;-61
2023/01/31 04:14:16;;;;;;;;;;;3.40;99.90;;;;;;5013319;28;1102;-61
2023/01/31 04:16:41;;;;;;;;;;;3.30;99.90;;;;;;5013836;28;1165;-61
2023/01/31 04:19:07;;;;;;;;;;;3.40;99.90;;;;;;5031666;28;1133;-61
2023/01/31 04:21:33;;;;;;;;;;;3.40;99.90;;;;;;5031011;28;1149;-61
2023/01/31 04:23:58;;;;;;;;;;;3.50;99.90;;;;;;5013463;28;1103;-61
2023/01/31 04:26:24;;;;;;;;;;;3.60;99.90;;;;;;5030969;28;1918;-61
2023/01/31 04:28:50;;;;;;;;;;;3.70;99.90;;;;;;5013493;28;1063;-61
2023/01/31 04:31:16;;;;;;;;;;;3.70;99.90;;;;;;5015304;28;1099;-61
2023/01/31 04:33:41;;;;;;;;;;;3.80;99.90;;;;;;5031042;28;1127;-61
2023/01/31 04:36:07;;;;;;;;;;;3.90;99.90;;;;;;5030392;28;1109;-61
2023/01/31 04:38:33;;;;;;;;;;;3.90;99.90;;;;;;5013803;28;1122;-61
2023/01/31 04:40:59;;;;;;;;;;;4.40;99.90;;;;;;5029826;28;1165;-61
2023/01/31 04:43:24;;;;;;;;;;;4.00;99.90;;;;;;5030165;28;1139;-61
2023/01/31 04:45:50;;;;;;;;;;;4.00;99.90;;;;;;5031335;28;1989;-61
2023/01/31 04:48:16;;;;;;;;;;;4.10;99.90;;;;;;5031161;28;1087;-61
2023/01/31 04:50:41;;;;;;;;;;;4.00;99.90;;;;;;5029955;28;1396;-61
2023/01/31 04:53:07;;;;;;;;;;;4.20;99.90;;;;;;5031270;28;1161;-61
2023/01/31 04:55:34;;;;;;;;;;;4.20;99.90;;;;;;5030874;28;1082;-61
2023/01/31 04:57:59;;;;;;;;;;;4.20;99.90;;;;;;5012696;28;1090;-61
2023/01/31 05:00:25;;;;;;;;;;;4.20;99.90;;;;;;5030662;28;1192;-61
2023/01/31 05:02:51;;;;;;;;;;;4.20;99.90;;;;;;5031024;28;1169;-61
2023/01/31 05:05:17;;;;;;;;;;;4.30;99.90;;;;;;5029816;28;1903;-61
2023/01/31 05:07:43;;;;;;;;;;;4.30;99.90;;;;;;5030590;28;1549;-61
2023/01/31 05:10:09;;;;;;;;;;;4.40;99.90;;;;;;5029870;28;1101;-62
2023/01/31 05:12:34;;;;;;;;;;;4.40;99.90;;;;;;5042592;28;1161;-61
2023/01/31 05:15:00;;;;;;;;;;;4.70;99.90;;;;;;5050603;28;1160;-61
2023/01/31 05:17:28;;;;;;;;;;;4.50;99.90;;;;;;5040610;28;948;-61
2023/01/31 05:19:55;;;;;;;;;;;4.60;99.90;;;;;;5030190;28;1242;-61
2023/01/31 05:22:21;;;;;;;;;;;4.90;99.90;;;;;;5030627;28;1086;-61
2023/01/31 05:24:47;;;;;;;;;;;4.70;99.90;;;;;;5034956;28;1103;-61
2023/01/31 05:27:13;;;;;;;;;;;5.00;99.90;;;;;;5034290;28;1969;-61
2023/01/31 05:29:38;;;;;;;;;;;4.80;99.90;;;;;;5030389;28;1067;-61
2023/01/31 05:32:04;;;;;;;;;;;4.90;99.90;;;;;;5011833;28;1011;-61
2023/01/31 05:34:32;;;;;;;;;;;4.90;99.90;;;;;;5011994;28;1158;-61
2023/01/31 05:36:58;;;;;;;;;;;5.00;99.90;;;;;;5030215;28;1225;-61
2023/01/31 05:39:24;;;;;;;;;;;5.00;99.90;;;;;;5029503;28;1102;-61
2023/01/31 05:41:49;;;;;;;;;;;4.90;99.90;;;;;;5029961;28;1098;-62
2023/01/31 05:44:15;;;;;;;;;;;4.90;99.90;;;;;;5011717;28;1132;-61
2023/01/31 05:46:41;;;;;;;;;;;4.90;99.90;;;;;;5028737;28;1910;-61
2023/01/31 05:49:07;;;;;;;;;;;5.00;99.90;;;;;;5033205;28;1290;-61
2023/01/31 05:51:32;;;;;;;;;;;5.00;99.90;;;;;;5012191;28;1366;-61
2023/01/31 05:53:58;;;;;;;;;;;5.00;99.90;;;;;;5028888;28;1125;-61
2023/01/31 05:56:24;;;;;;;;;;;5.00;99.90;;;;;;5028579;28;1095;-61
2023/01/31 05:58:50;;;;;;;;;;;5.00;99.90;;;;;;5029889;28;1208;-61
2023/01/31 06:01:16;;;;;;;;;;;5.00;99.90;;;;;;5028631;28;1199;-61
2023/01/31 06:03:42;;;;;;;;;;;5.00;99.90;;;;;;5029452;28;1109;-62
2023/01/31 06:06:08;;;;;;;;;;;5.00;99.90;;;;;;5011789;28;1914;-62
2023/01/31 06:08:33;;;;;;;;;;;5.00;99.90;;;;;;5028813;28;1212;-61
2023/01/31 06:11:01;;;;;;;;;;;5.00;99.90;;;;;;5029153;28;1110;-62
2023/01/31 06:13:26;;;;;;;;;;;5.00;99.90;;;;;;5011865;28;1185;-62
2023/01/31 06:15:52;;;;;;;;;;;5.10;99.90;;;;;;5029635;28;1296;-62
2023/01/31 06:18:18;;;;;;;;;;;5.20;99.90;;;;;;5029177;28;1075;-62
2023/01/31 06:20:43;;;;;;;;;;;5.20;99.90;;;;;;5028464;28;1361;-62
2023/01/31 06:23:09;;;;;;;;;;;5.20;99.90;;;;;;5029465;28;1126;-61
2023/01/31 06:25:35;;;;;;;;;;;5.30;99.90;;;;;;5011532;28;1918;-62
2023/01/31 06:28:00;;;;;;;;;;;5.30;99.90;;;;;;5028328;28;1157;-62
2023/01/31 06:30:26;;;;;;;;;;;5.30;99.90;;;;;;5011572;28;1157;-61
2023/01/31 06:32:51;;;;;;;;;;;5.40;99.90;;;;;;5029095;28;1150;-62
2023/01/31 06:35:17;;;;;;;;;;;5.40;99.90;;;;;;5028810;28;1189;-62
2023/01/31 06:37:43;;;;;;;;;;;5.30;99.90;;;;;;5028488;28;1102;-62
2023/01/31 06:40:09;;;;;;;;;;;5.40;99.90;;;;;;5011034;28;1091;-62
2023/01/31 06:42:35;;;;;;;;;;;5.40;99.90;;;;;;5047815;28;1169;-62
2023/01/31 06:45:00;;;;;;;;;;;5.40;99.90;;;;;;5048412;28;1981;-62
2023/01/31 06:47:26;;;;;;;;;;;5.40;99.90;;;;;;5011246;28;1325;-62
2023/01/31 06:49:51;;;;;;;;;;;5.50;99.90;;;;;;5027543;28;1361;-61
2023/01/31 06:52:17;;;;;;;;;;;5.50;99.90;;;;;;5027948;28;1412;-62
2023/01/31 06:54:43;;;;;;;;;;;5.40;99.90;;;;;;5028464;28;1131;-62
2023/01/31 06:57:09;;;;;;;;;;;5.30;99.90;;;;;;5028695;28;1149;-62
2023/01/31 06:59:34;;;;;;;;;;;5.40;99.90;;;;;;5033222;28;1102;-62
2023/01/31 07:02:00;;;;;;;;;;;5.40;99.90;;;;;;5032939;28;1090;-62
2023/01/31 07:04:25;;;;;;;;;;;5.40;99.90;;;;;;5014096;28;1381;-62
2023/01/31 07:06:51;;;;;;;;;;;5.40;99.90;;;;;;5032736;28;1906;-62
2023/01/31 07:09:17;;;;;;;;;;;5.40;99.90;;;;;;5033010;28;987;-62
2023/01/31 07:11:42;;;;;;;;;;;5.30;99.90;;;;;;5032076;28;1153;-62
2023/01/31 07:14:08;;;;;;;;;;;5.30;99.90;;;;;;5032820;28;1283;-61
2023/01/31 07:16:36;;;;;;;;;;;5.40;99.90;;;;;;5021007;28;1292;-62
2023/01/31 07:19:02;;;;;;;;;;;5.30;99.90;;;;;;5020977;28;1188;-62
2023/01/31 07:21:28;;;;;;;;;;;5.40;99.90;;;;;;5020549;28;1321;-62
2023/01/31 07:23:54;;;;;;;;;;;5.40;99.90;;;;;;5011073;28;1251;-62
2023/01/31 07:26:19;;;;;;;;;;;5.40;99.90;;;;;;5010879;28;1984;-62
2023/01/31 07:28:45;;;;;;;;;;;5.40;99.90;;;;;;5028956;28;1263;-62
2023/01/31 07:31:11;;;;;;;;;;;5.40;99.90;;;;;;5020258;28;1143;-62
2023/01/31 07:33:38;;;;;;;;;;;5.50;99.90;;;;;;5031185;28;1089;-62
2023/01/31 07:36:04;;;;;;;;;;;5.50;99.90;;;;;;5032507;28;1117;-62
2023/01/31 07:38:30;;;;;;;;;;;5.50;99.90;;;;;;5027583;28;1105;-62
2023/01/31 07:40:59;;;;;;;;;;;5.60;99.90;;;;;;5031165;28;1125;-62
2023/01/31 07:43:24;;;;;;;;;;;5.60;99.90;;;;;;5032133;28;1113;-62
2023/01/31 07:45:50;;;;;;;;;;;5.60;99.90;;;;;;5031140;28;1914;-62
2023/01/31 07:48:15;;;;;;;;;;;5.70;99.90;;;;;;5002872;28;1078;-63
2023/01/31 07:50:41;;;;;;;;;;;5.70;99.90;;;;;;5003962;28;1374;-62
2023/01/31 07:53:07;;;;;;;;;;;5.70;99.90;;;;;;5023664;28;1090;-62
2023/01/31 07:55:32;;;;;;;;;;;5.70;99.90;;;;;;5029200;28;1169;-62
2023/01/31 07:57:58;;;;;;;;;;;5.60;99.90;;;;;;5021721;28;1116;-62
2023/01/31 08:03:32;;;;;;;;;;;5.70;99.90;;;;;;5000808;28;1102;-62
2023/01/31 08:06:00;;;;;;;;;;;5.70;99.90;;;;;;5029587;28;2023;-62
2023/01/31 08:08:26;;;;;;;;;;;5.70;99.90;;;;;;5029691;28;1130;-62
2023/01/31 08:10:51;;;;;;;;;;;5.70;99.90;;;;;;5010409;28;1133;-62
2023/01/31 08:13:17;;;;;;;;;;;5.70;99.90;;;;;;5016248;28;1138;-62
2023/01/31 08:15:43;;;;;;;;;;;5.60;99.90;;;;;;5026603;28;1133;-62
2023/01/31 08:18:08;;;;;;;;;;;5.70;99.90;;;;;;5031774;28;1158;-63
2023/01/31 08:20:36;;;;;;;;;;;5.70;99.90;;;;;;5030754;28;1417;-62
2023/01/31 08:23:02;;;;;;;;;;;5.80;99.90;;;;;;5026888;28;3401;-62
2023/01/31 08:25:29;;;;;;;;;;;5.90;99.90;;;;;;5033784;28;1977;-62
2023/01/31 08:27:56;;;;;;;;;;;5.90;99.90;;;;;;5028609;28;3044;-62
2023/01/31 08:30:22;;;;;;;;;;;6.00;99.90;;;;;;5028302;28;1158;-63
2023/01/31 08:32:47;;;;;;;;;;;6.20;99.90;;;;;;5030513;28;1070;-63
2023/01/31 08:35:13;;;;;;;;;;;6.20;99.90;;;;;;5030953;28;1087;-62
2023/01/31 08:37:39;;;;;;;;;;;6.20;99.90;;;;;;5031191;28;1149;-63
2023/01/31 08:40:05;;;;;;;;;;;6.30;99.90;;;;;;5030982;28;1193;-62
2023/01/31 08:42:31;;;;;;;;;;;6.40;99.90;;;;;;5035322;28;1195;-62
2023/01/31 08:44:56;;;;;;;;;;;6.30;99.90;;;;;;5023612;28;1240;-63
2023/01/31 08:47:22;;;;;;;;;;;6.30;99.90;;;;;;5037102;28;1914;-63
2023/01/31 08:49:48;;;;;;;;;;;6.40;99.90;;;;;;5030154;28;1328;-63
2023/01/31 08:52:13;;;;;;;;;;;6.40;99.90;;;;;;5013582;28;1381;-63
2023/01/31 08:54:39;;;;;;;;;;;6.50;99.90;;;;;;5030678;28;1141;-63
2023/01/31 08:57:04;;;;;;;;;;;6.40;99.90;;;;;;5012810;28;1110;-63
2023/01/31 08:59:30;;;;;;;;;;;6.50;99.90;;;;;;5030771;28;1108;-63
2023/01/31 09:01:56;;;;;;;;;;;6.50;99.90;;;;;;5038350;28;1009;-63
2023/01/31 09:04:21;;;;;;;;;;;6.40;99.90;;;;;;5037409;28;1244;-63
2023/01/31 09:06:48;;;;;;;;;;;6.60;99.90;;;;;;5041682;28;1917;-63
2023/01/31 09:09:14;;;;;;;;;;;6.50;99.90;;;;;;5040227;28;1260;-63
2023/01/31 09:11:39;;;;;;;;;;;6.40;99.90;;;;;;5040881;28;1365;-63
2023/01/31 09:14:05;;;;;;;;;;;6.40;99.90;;;;;;5039787;28;1260;-63
2023/01/31 09:16:31;;;;;;;;;;;6.40;99.90;;;;;;5022898;28;1341;-63
2023/01/31 09:18:57;;;;;;;;;;;6.50;99.90;;;;;;4996583;28;1413;-63
2023/01/31 09:21:23;;;;;;;;;;;6.60;99.90;;;;;;5020168;28;1172;-63
2023/01/31 09:23:53;;;;;;;;;;;6.70;99.90;;;;;;5021592;28;1097;-63
2023/01/31 09:26:18;;;;;;;;;;;6.60;99.90;;;;;;5015590;28;1910;-63
2023/01/31 09:28:44;;;;;;;;;;;6.60;99.90;;;;;;5030385;28;1164;-63
2023/01/31 09:31:11;;;;;;;;;;;6.80;99.90;;;;;;5029515;28;1176;-63
2023/01/31 09:33:37;;;;;;;;;;;6.60;99.90;;;;;;5026190;28;1157;-63
2023/01/31 09:36:03;;;;;;;;;;;6.60;99.90;;;;;;4998344;28;956;-63
2023/01/31 09:38:29;;;;;;;;;;;6.60;99.90;;;;;;5029056;28;1094;-63
2023/01/31 09:40:56;;;;;;;;;;;6.60;99.90;;;;;;5030158;28;1098;-63
2023/01/31 09:43:24;;;;;;;;;;;6.60;99.90;;;;;;5021253;28;1236;-63
2023/01/31 09:45:52;;;;;;;;;;;6.50;99.90;;;;;;5021409;28;1971;-63
2023/01/31 09:48:19;;;;;;;;;;;6.60;99.90;;;;;;5019668;28;1259;-63
2023/01/31 09:50:47;;;;;;;;;;;6.50;99.90;;;;;;5002037;28;1297;-63
2023/01/31 09:53:20;;;;;;;;;;;6.50;99.90;;;;;;5018948;28;1165;-63
2023/01/31 09:55:56;;;;;;;;;;;6.60;99.90;;;;;;5019758;28;1204;-63
2023/01/31 09:58:29;;;;;;;;;;;6.60;99.90;;;;;;5006567;28;1300;-63
2023/01/31 10:01:06;;;;;;;;;;;6.70;99.90;;;;;;5018876;28;1136;-63
2023/01/31 10:03:38;;;;;;;;;;;6.70;99.90;;;;;;5029975;28;1152;-63
2023/01/31 10:06:04;;;;;;;;;;;6.70;99.90;;;;;;5006716;28;3105;-63
2023/01/31 10:08:47;;;;;;;;;;;6.70;99.90;;;;;;5010455;28;1173;-63
2023/01/31 10:11:15;;;;;;;;;;;6.70;99.90;;;;;;5012325;28;3257;-63
2023/01/31 10:13:48;;;;;;;;;;;6.80;99.90;;;;;;5013413;28;1200;-63
2023/01/31 10:16:27;;;;;;;;;;;6.80;99.90;;;;;;5016612;28;1351;-63
2023/01/31 10:18:56;;;;;;;;;;;6.90;99.90;;;;;;5013671;28;1175;-63
2023/01/31 10:21:25;;;;;;;;;;;7.00;99.90;;;;;;5017543;28;1309;-63
2023/01/31 10:23:51;;;;;;;;;;;7.00;99.90;;;;;;4990687;28;2825;-63
2023/01/31 10:26:24;;;;;;;;;;;7.00;99.90;;;;;;4995546;28;1899;-63
2023/01/31 10:28:53;;;;;;;;;;;7.00;99.90;;;;;;5009569;28;1200;-63
2023/01/31 10:31:29;;;;;;;;;;;7.00;99.90;;;;;;5008342;28;1277;-63
2023/01/31 10:33:58;;;;;;;;;;;7.00;99.90;;;;;;5008115;28;1091;-63
2023/01/31 10:36:27;;;;;;;;;;;6.90;99.90;;;;;;5010988;28;1057;-63
2023/01/31 10:39:12;;;;;;;;;;;6.90;99.90;;;;;;5009651;28;1117;-63
2023/01/31 10:41:42;;;;;;;;;;;6.80;99.90;;;;;;5008747;28;1083;-63
2023/01/31 10:44:16;;;;;;;;;;;6.80;99.90;;;;;;5003547;28;3539;-63
2023/01/31 10:46:42;;;;;;;;;;;6.70;99.90;;;;;;5010338;28;1965;-63
2023/01/31 10:49:09;;;;;;;;;;;6.60;99.90;;;;;;5017782;28;3089;-63
2023/01/31 10:51:47;;;;;;;;;;;6.70;99.90;;;;;;5006402;28;1290;-63
2023/01/31 10:54:26;;;;;;;;;;;6.60;99.90;;;;;;5010798;28;1245;-63
2023/01/31 10:56:52;;;;;;;;;;;6.60;99.90;;;;;;5010362;28;1288;-63
2023/01/31 10:59:18;;;;;;;;;;;6.50;99.90;;;;;;5011259;28;1216;-63
2023/01/31 11:01:43;;;;;;;;;;;6.50;99.90;;;;;;5002149;28;3137;-63
2023/01/31 11:04:21;;;;;;;;;;;6.50;99.90;;;;;;4987037;28;1205;-63
2023/01/31 11:06:47;;;;;;;;;;;6.50;99.90;;;;;;5006782;28;1910;-63
2023/01/31 11:09:13;;;;;;;;;;;6.50;99.90;;;;;;4988439;28;1033;-64
2023/01/31 11:11:51;;;;;;;;;;;6.50;99.90;;;;;;5011924;28;1043;-64
2023/01/31 11:14:17;;;;;;;;;;;6.50;99.90;;;;;;5009667;28;1156;-64
2023/01/31 11:16:43;;;;;;;;;;;6.50;99.90;;;;;;5016910;28;1085;-63
2023/01/31 11:19:31;;;;;;;;;;;6.60;99.90;;;;;;5007357;28;1248;-63
2023/01/31 11:21:57;;;;;;;;;;;6.60;99.90;;;;;;4983619;28;1914;-63
2023/01/31 11:24:25;;;;;;;;;;;6.60;99.90;;;;;;5000151;28;1109;-63
2023/01/31 11:26:52;;;;;;;;;;;6.60;99.90;;;;;;5028895;28;1974;-64
2023/01/31 11:29:22;;;;;;;;;;;6.70;99.90;;;;;;4993481;28;1138;-64
2023/01/31 11:31:48;;;;;;;;;;;6.70;99.90;;;;;;5005143;28;3105;-63
2023/01/31 11:34:19;;;;;;;;;;;6.70;99.90;;;;;;5002188;28;2877;-63
2023/01/31 11:36:46;;;;;;;;;;;6.70;99.90;;;;;;5005261;28;1253;-63
2023/01/31 11:39:33;;;;;;;;;;;6.70;99.90;;;;;;5014134;28;3442;-63
2023/01/31 11:42:04;;;;;;;;;;;6.80;99.90;;;;;;5000013;28;1172;-63
2023/01/31 11:44:30;;;;;;;;;;;6.80;99.90;;;;;;5028303;28;1158;-63
2023/01/31 11:46:58;;;;;;;;;;;6.80;99.90;;;;;;5014109;28;1932;-63
2023/01/31 11:49:29;;;;;;;;;;;6.80;99.90;;;;;;5029715;28;1326;-63
2023/01/31 11:51:56;;;;;;;;;;;6.90;99.90;;;;;;5018090;28;1378;-63
2023/01/31 11:54:25;;;;;;;;;;;6.90;99.90;;;;;;5032208;28;1114;-64
2023/01/31 11:56:51;;;;;;;;;;;6.90;99.90;;;;;;5027447;28;2349;-63
2023/01/31 11:59:20;;;;;;;;;;;7.00;99.90;;;;;;4993748;28;1603;-63
2023/01/31 12:01:47;;;;;;;;;;;7.00;99.90;;;;;;5023173;28;1461;-63
2023/01/31 12:04:16;;;;;;;;;;;7.10;99.90;;;;;;5019753;28;1244;-63
2023/01/31 12:06:53;;;;;;;;;;;7.20;99.90;;;;;;5010380;28;1977;-63
2023/01/31 12:09:20;;;;;;;;;;;7.30;99.90;;;;;;5002650;28;1150;-63
2023/01/31 12:11:54;;;;;;;;;;;7.40;99.90;;;;;;5018678;28;1094;-63
2023/01/31 12:14:19;;;;;;;;;;;7.40;99.90;;;;;;5022303;28;1325;-63
2023/01/31 12:16:46;;;;;;;;;;;7.30;99.90;;;;;;5051494;28;951;-63
2023/01/31 12:19:12;;;;;;;;;;;7.50;99.90;;;;;;5033219;28;1097;-64
2023/01/31 12:21:46;;;;;;;;;;;7.50;99.90;;;;;;5016509;28;1345;-63
2023/01/31 12:24:16;;;;;;;;;;;7.50;99.90;;;;;;5030296;28;1264;-63
2023/01/31 12:26:45;;;;;;;;;;;7.50;99.90;;;;;;5030736;28;1950;-63
2023/01/31 12:29:18;;;;;;;;;;;7.50;99.90;;;;;;5031392;28;1192;-63
2023/01/31 12:31:50;;;;;;;;;;;7.50;99.90;;;;;;5031123;28;1116;-63
2023/01/31 12:34:19;;;;;;;;;;;7.50;99.90;;;;;;5030904;28;1158;-63
2023/01/31 12:36:50;;;;;;;;;;;7.50;99.90;;;;;;5031152;28;1118;-63
2023/01/31 12:39:27;;;;;;;;;;;7.60;99.90;;;;;;5013400;28;1142;-64
2023/01/31 12:42:01;;;;;;;;;;;7.60;99.90;;;;;;5030434;28;1138;-63
2023/01/31 12:44:38;;;;;;;;;;;7.60;99.90;;;;;;5031287;28;1181;-63
2023/01/31 12:47:03;;;;;;;;;;;7.70;99.90;;;;;;5031146;28;1993;-64
2023/01/31 12:49:35;;;;;;;;;;;7.80;99.90;;;;;;5029341;28;1245;-63
2023/01/31 12:52:00;;;;;;;;;;;7.90;99.90;;;;;;5034027;28;1286;-63
2023/01/31 12:54:30;;;;;;;;;;;8.00;99.90;;;;;;5016795;28;1218;-63
2023/01/31 12:57:01;;;;;;;;;;;8.10;99.90;;;;;;5031412;28;1306;-63
2023/01/31 12:59:31;;;;;;;;;;;8.10;99.90;;;;;;5013224;28;1102;-63
2023/01/31 13:02:15;;;;;;;;;;;8.10;99.90;;;;;;5031155;28;1275;-63
2023/01/31 13:04:47;;;;;;;;;;;8.20;99.90;;;;;;5019228;28;1222;-63
2023/01/31 13:07:18;;;;;;;;;;;8.40;99.90;;;;;;5023454;28;1921;-63
2023/01/31 13:09:45;;;;;;;;;;;8.40;99.90;;;;;;5030238;28;1134;-63
2023/01/31 13:12:14;;;;;;;;;;;8.50;99.90;;;;;;5029763;28;1115;-63
2023/01/31 13:14:42;;;;;;;;;;;8.50;99.90;;;;;;5028034;28;1303;-63
2023/01/31 13:17:11;;;;;;;;;;;8.50;99.90;;;;;;4990655;28;3248;-64
2023/01/31 13:19:46;;;;;;;;;;;8.50;99.90;;;;;;5008858;28;3558;-64
2023/01/31 13:22:17;;;;;;;;;;;8.50;99.90;;;;;;5018136;28;1409;-64
2023/01/31 13:24:45;;;;;;;;;;;8.50;99.90;;;;;;5018158;28;2720;-63
2023/01/31 13:27:16;;;;;;;;;;;8.60;99.90;;;;;;5015596;28;2048;-63
2023/01/31 13:29:46;;;;;;;;;;;8.60;99.90;;;;;;5013477;28;1380;-64
2023/01/31 13:32:14;;;;;;;;;;;8.60;99.90;;;;;;5013488;28;1207;-63
2023/01/31 13:34:43;;;;;;;;;;;8.70;99.90;;;;;;5006523;28;1108;-64
2023/01/31 13:37:12;;;;;;;;;;;8.70;99.90;;;;;;5012818;28;2951;-63
2023/01/31 13:39:40;;;;;;;;;;;8.60;99.90;;;;;;5010903;28;1112;-63
2023/01/31 13:42:06;;;;;;;;;;;8.60;99.90;;;;;;5012151;28;1448;-64
2023/01/31 13:44:32;;;;;;;;;;;8.60;99.90;;;;;;5017512;28;1440;-64
2023/01/31 13:47:01;;;;;;;;;;;8.70;99.90;;;;;;5008519;28;1922;-64
2023/01/31 13:49:31;;;;;;;;;;;8.70;99.90;;;;;;5021963;28;1368;-63
2023/01/31 13:51:59;;;;;;;;;;;8.70;99.90;;;;;;4996472;28;2316;-63
2023/01/31 13:54:35;;;;;;;;;;;8.70;99.90;;;;;;5018396;28;1855;-63
2023/01/31 13:57:01;;;;;;;;;;;8.80;99.90;;;;;;5017496;28;1879;-63
2023/01/31 13:59:30;;;;;;;;;;;8.80;99.90;;;;;;5016687;28;3150;-63
2023/01/31 14:01:57;;;;;;;;;;;8.80;99.90;;;;;;5018909;28;2693;-63
2023/01/31 14:04:25;;;;;;;;;;;8.80;99.90;;;;;;5014425;28;1350;-63
2023/01/31 14:06:52;;;;;;;;;;;8.80;99.90;;;;;;5009202;28;3361;-64
2023/01/31 14:09:22;;;;;;;;;;;8.90;99.90;;;;;;5005097;28;2096;-63
2023/01/31 14:11:47;;;;;;;;;;;9.20;99.90;;;;;;5008052;28;1087;-64
2023/01/31 14:14:18;;;;;;;;;;;9.40;99.90;;;;;;5010585;28;1240;-63
2023/01/31 14:16:45;;;;;;;;;;;9.50;99.90;;;;;;5023391;28;2758;-63
2023/01/31 14:19:17;;;;;;;;;;;9.40;99.90;;;;;;5026721;28;1133;-64
2023/01/31 14:21:50;;;;;;;;;;;9.40;99.90;;;;;;5028573;28;1285;-63
2023/01/31 14:24:19;;;;;;;;;;;9.40;99.90;;;;;;5029535;28;1275;-63
2023/01/31 14:26:44;;;;;;;;;;;9.60;99.90;;;;;;5028489;28;2052;-63
2023/01/31 14:29:19;;;;;;;;;;;10.00;99.90;;;;;;5032617;28;1136;-63
2023/01/31 14:31:45;;;;;;;;;;;10.10;99.90;;;;;;5032607;28;1249;-63
2023/01/31 14:34:16;;;;;;;;;;;9.70;99.90;;;;;;5015508;28;1245;-64
2023/01/31 14:36:42;;;;;;;;;;;9.50;99.90;;;;;;5038303;28;1472;-63
2023/01/31 14:39:19;;;;;;;;;;;9.20;99.90;;;;;;5038792;28;1283;-63
2023/01/31 14:41:51;;;;;;;;;;;9.10;99.90;;;;;;5033420;28;1375;-63
2023/01/31 14:44:30;;;;;;;;;;;9.30;99.90;;;;;;5037519;28;1154;-63
2023/01/31 14:46:57;;;;;;;;;;;8.90;99.90;;;;;;5037808;28;1910;-63
2023/01/31 14:49:29;;;;;;;;;;;8.80;99.90;;;;;;5038431;28;1248;-63
2023/01/31 14:52:21;;;;;;;;;;;8.60;99.90;;;;;;5035421;28;1317;-63
2023/01/31 14:54:53;;;;;;;;;;;8.80;99.90;;;;;;5037337;28;1181;-63
2023/01/31 14:57:20;;;;;;;;;;;8.80;99.90;;;;;;5039345;28;1202;-63